Date,TemperatureHighF,TemperatureAvgF,TemperatureLowF,DewpointHighF,DewpointAvgF,DewpointLowF,HumidityHigh,HumidityAvg,HumidityLow,PressureMaxIn,PressureMinIn,WindSpeedMaxMPH,WindSpeedAvgMPH,GustSpeedMaxMPH,PrecipitationSumIn
2013-2-1,28.4,14.6,-2.9,20.0,5.9,-9.9,76,68,59,29.43,29.07,10,2,10,0.00
2013-2-2,37.1,30.4,25.6,29.5,23.3,19.0,84,75,63,29.21,29.06,7,1,7,0.00
2013-2-3,68.0,34.0,19.1,41.4,23.9,12.3,78,67,29,29.23,28.79,13,3,13,0.03
2013-2-4,37.4,28.7,23.4,29.6,22.1,19.0,85,76,65,29.04,28.78,21,6,21,0.01
2013-2-5,64.8,39.5,26.5,36.9,26.8,19.5,88,65,29,29.09,28.83,21,5,21,0.00
2013-2-6,52.6,40.2,27.0,37.5,30.9,20.1,83,70,53,29.09,28.85,18,5,18,0.00
2013-2-7,38.5,34.0,30.2,32.6,28.1,23.2,85,79,74,29.25,28.89,22,10,22,0.00
2013-2-8,38.2,29.9,26.1,27.0,24.1,21.5,87,79,62,29.34,29.14,12,5,12,0.00
2013-2-9,52.2,38.7,28.4,37.5,31.5,24.8,89,76,56,29.16,28.69,22,11,22,0.00
2013-2-10,45.9,37.4,29.9,41.6,32.4,22.9,93,82,72,28.82,28.28,24,10,24,0.01
2013-2-11,42.3,30.6,21.4,26.9,22.1,15.9,80,71,52,29.16,28.82,25,8,25,0.00
2013-2-12,59.8,34.2,18.0,29.0,20.4,13.9,88,62,25,29.16,28.91,12,3,12,0.00
2013-2-13,65.2,38.8,21.2,33.1,24.2,15.0,82,59,28,28.92,28.74,10,2,10,0.00
2013-2-14,42.5,33.7,21.2,30.1,25.5,14.5,84,72,49,29.29,28.80,24,8,24,0.00
2013-2-15,40.3,25.5,14.4,22.8,15.7,8.7,82,68,40,29.36,29.28,14,5,14,0.00
2013-2-16,35.6,22.3,5.0,26.7,15.3,-1.3,84,74,65,29.34,29.02,10,3,10,0.01
2013-2-17,55.4,39.1,23.6,35.3,27.4,18.4,82,64,46,29.02,28.58,17,7,17,0.02
2013-2-18,44.5,30.6,20.9,32.7,21.3,13.1,83,68,51,29.08,28.57,29,11,29,0.00
2013-2-19,40.0,19.0,8.8,13.2,3.6,-1.2,74,54,23,29.39,29.08,24,10,24,0.00
2013-2-20,25.6,15.5,5.2,7.8,2.2,-3.3,70,56,43,29.39,29.21,12,5,12,0.00
2013-2-21,26.5,23.2,22.0,20.1,13.1,7.3,85,66,52,29.25,28.86,21,9,21,0.00
2013-2-22,39.1,21.2,6.8,19.2,13.8,-0.9,86,74,44,29.03,28.86,13,6,13,0.02
2013-2-23,43.7,20.6,-0.4,26.7,12.2,-7.0,82,70,50,29.02,28.83,10,3,10,0.01
2013-2-24,56.7,32.2,19.8,35.1,23.7,15.7,86,72,39,29.09,28.89,10,3,10,0.02
2013-2-25,46.6,32.0,26.5,32.0,25.1,21.9,87,76,53,29.10,28.94,13,5,13,0.04
2013-2-26,34.4,29.6,26.1,29.2,25.2,22.5,90,84,78,28.95,28.80,17,9,17,0.00
2013-2-27,41.0,31.7,24.5,26.6,24.5,19.2,85,75,54,29.11,28.91,25,13,25,0.01
2013-2-28,40.7,29.0,25.6,26.7,22.4,19.8,82,76,57,29.24,29.11,26,10,26,0.01